• Join FlightAware (Why Join?)
  • Login
  • US Flag 
07:23AM EDT


 

Airport Tracker/Info


-or-


 

Live Flight TrackerFlight Track Log ✈ JBU808 ✈ 16-Mar-2014 ✈ TJSJ / SJU - KBOS

Flight Track Log - Related Links

Times and Time Zones

All times are in EDT time to prevent confusion due to time zone crossing. See the JBU808 flight status page for this flight to view local times or setup timezone preferences in your user account.

Time Position Orientation Groundspeed Altitude Reporting Facility
EDT Latitude Longitude Course Direction KTS MPH feet Rate Location/Type
03:04PM 18.5000 -65.9667 360° North 200 230 2,600  Level San Juan Center
03:05PM 18.5833 -65.9500 11° North 280 322 5,100 2,760 Climbing San Juan Center
03:06PM 18.6500 -65.9500 360° North 290 334 8,200 3,060 Climbing San Juan Center
03:07PM 18.8578 -65.9667 North  Level FlightAware Approximate
03:07PM 18.7333 -65.9667 349° North 280 322 11,300  Level San Juan Center
03:08PM 18.9646 -65.9667 North  Level FlightAware Approximate
03:08PM 18.8167 -65.9500 11° North 320 368 12,000  Level San Juan Center
03:09PM 19.0714 -65.9667 North  Level FlightAware Approximate
03:09PM 18.9167 -65.9500 360° North 370 426 13,800  Level San Juan Center
03:10PM 19.0167 -65.9500 360° North 360 414 14,500 1,140 Climbing San Juan Center
03:11PM 19.1333 -65.9333 North 380 437 16,200 1,740 Climbing San Juan Center
03:12PM 19.2333 -65.9333 360° North 370 426 18,100 1,800 Climbing San Juan Center
03:13PM 19.3333 -65.9333 360° North 380 437 19,900 1,620 Climbing San Juan Center
03:14PM 19.4500 -65.9167 North 400 460 21,400 1,380 Climbing San Juan Center
03:15PM 19.5667 -65.9167 360° North 410 472 22,700 1,260 Climbing San Juan Center
03:16PM 19.6833 -65.9167 360° North 420 483 24,000 1,200 Climbing San Juan Center
03:17PM 19.8000 -65.9000 North 430 495 25,200 1,200 Climbing San Juan Center
03:18PM 19.9167 -65.9000 360° North 430 495 26,500 1,200 Climbing San Juan Center
03:19PM 20.0333 -65.8833 North 440 506 27,700 1,080 Climbing San Juan Center
03:20PM 20.1667 -65.8833 360° North 440 506 28,700 900 Climbing San Juan Center
03:21PM 20.2833 -65.8833 360° North 450 518 29,600 1,080 Climbing San Juan Center
03:22PM 20.4167 -65.8667 North 450 518 30,900 1,680 Climbing San Juan Center
03:23PM 20.5333 -65.8667 360° North 430 495 33,000 1,320 Climbing San Juan Center
03:24PM 20.6500 -65.8667 360° North 420 483 33,600 840 Climbing San Juan Center
03:25PM 20.7667 -65.8500 North 420 483 34,800 1,200 Climbing San Juan Center
03:26PM 20.8833 -65.8500 360° North 420 483 36,000 540 Climbing San Juan Center
03:27PM 21.0000 -65.8500 360° North 410 472 36,000  Level San Juan Center
03:28PM 21.1333 -65.8333 North 440 506 36,000  Level San Juan Center
03:29PM 21.2500 -65.8333 360° North 420 483 36,000  Level San Juan Center
03:30PM 21.3667 -65.8500 352° North 470 541 36,000  Level San Juan Center
03:31PM 21.5000 -65.8167 13° North 460 529 36,000  Level San Juan Center
03:32PM 21.6167 -65.8167 360° North 430 495 36,000  Level San Juan Center
03:33PM 21.7333 -65.8000 North 460 529 36,000  Level San Juan Center
03:34PM 21.8500 -65.8000 360° North 410 472 36,000 -60 Level San Juan Center
03:35PM 21.9667 -65.8000 360° North 400 460 35,900 -60 Descending San Juan Center
03:37PM 22.1333 -65.7667 10° North 410 472 35,900  Level San Juan Center
03:37PM 22.0667 -65.8000 10° North 436 502 36,000 60 Climbing New York Oceanic (ODAPS)
03:38PM 22.2500 -65.7333 10° North 440 506 36,000  Level San Juan Center
03:51PM 23.5000 -65.5333 351° North 401 461 36,000  Level New York Oceanic (ODAPS)
04:03PM 24.9333 -65.7833 North 424 488 36,000  Level New York Oceanic (ODAPS)
04:40PM 29.4753 -65.4106 349° North 450 518 36,000  Level New York Center
04:41PM 29.6225 -65.4613 349° North 424 488 36,000  Level FlightAware Transoceanic
04:41PM 29.5781 -65.4283 351° North 405 466 36,000  Level New York Center
04:42PM 29.7255 -65.4836 349° North 424 488 36,000  Level FlightAware Transoceanic
04:42PM 29.6725 -65.4514 348° North 382 440 36,000  Level New York Center
04:43PM 29.8284 -65.5060 349° North 424 488 36,000  Level FlightAware Transoceanic
04:43PM 29.7839 -65.4733 350° North 375 432 36,000  Level New York Center
04:44PM 29.9313 -65.5285 349° North 424 488 36,000  Level FlightAware Transoceanic
04:44PM 29.8761 -65.4919 350° North 371 427 36,000  Level New York Center
04:45PM 30.0342 -65.5510 349° North 424 488 36,000  Level FlightAware Transoceanic
04:45PM 29.9919 -65.5233 347° North 376 433 36,000  Level New York Center
04:46PM 30.1371 -65.5735 349° North 424 488 36,000  Level FlightAware Transoceanic
04:46PM 30.0906 -65.5439 350° North 380 437 36,000  Level New York Center
04:47PM 30.1828 -65.5625 350° North 370 426 36,000  Level New York Center
04:48PM 30.2967 -65.5967 345° North 376 433 36,000  Level New York Center
04:49PM 30.3931 -65.6103 353° North 369 425 36,000  Level New York Center
04:50PM 30.4878 -65.6361 347° North 377 434 36,000  Level New York Center
04:51PM 30.5989 -65.6561 351° North 372 428 36,000  Level New York Center
04:52PM 30.6914 -65.6797 348° North 373 429 36,000  Level New York Center
04:53PM 30.8006 -65.7047 349° North 373 429 36,000  Level New York Center
04:54PM 30.8972 -65.7233 351° North 367 422 36,000  Level New York Center
04:55PM 30.9878 -65.7450 348° North 361 415 36,000  Level New York Center
04:56PM 31.0969 -65.7700 349° North 355 409 36,000  Level New York Center
04:57PM 31.1936 -65.7889 351° North 355 409 36,000  Level New York Center
04:58PM 31.2797 -65.8106 348° North 355 409 36,000  Level New York Center
04:59PM 31.3892 -65.8361 349° North 355 409 36,000  Level New York Center
05:00PM 31.4772 -65.8553 349° North 361 415 36,000  Level New York Center
05:01PM 31.5847 -65.8808 349° North 356 410 36,000  Level New York Center
05:02PM 31.6833 -65.8997 351° North 356 410 36,000  Level New York Center
05:03PM 31.7736 -65.9217 348° North 356 410 36,000  Level New York Center
05:04PM 31.8811 -65.9472 349° North 356 410 36,000  Level New York Center
05:05PM 31.9778 -65.9689 349° North 356 410 36,000  Level New York Center
05:06PM 32.0661 -65.9908 348° North 353 406 36,000  Level New York Center
05:07PM 32.1733 -66.0142 350° North 353 406 36,000  Level New York Center
05:08PM 32.2722 -66.0383 348° North 353 406 36,000  Level New York Center
05:09PM 32.3603 -66.0556 351° North 359 413 36,000  Level New York Center
05:10PM 32.4719 -66.0814 349° North 355 409 36,000  Level New York Center
05:11PM 32.5581 -66.1011 349° North 355 409 36,000  Level New York Center
05:12PM 32.6633 -66.1275 348° North 349 402 36,000  Level New York Center
05:13PM 32.7619 -66.1492 350° North 363 418 36,000  Level New York Center
05:14PM 32.8567 -66.1686 350° North 364 419 36,100  Climbing New York Center
05:15PM 32.9639 -66.1925 349° North 358 412 36,000 -60 Descending New York Center
05:16PM 33.0606 -66.2169 348° North 353 406 36,000  Level New York Center
05:17PM 33.1447 -66.2372 349° North 353 406 36,000  Level New York Center
05:18PM 33.2500 -66.2639 348° North 355 409 36,000  Level New York Center
05:19PM 33.3403 -66.2814 351° North 356 410 36,000  Level New York Center
05:20PM 33.4478 -66.3078 348° North 356 410 36,000  Level New York Center
05:21PM 33.5444 -66.3278 350° North 362 417 36,000  Level New York Center
05:22PM 33.6308 -66.3506 348° North 355 409 36,000  Level New York Center
05:23PM 33.7400 -66.3722 351° North 350 403 36,000  Level New York Center
05:24PM 33.8347 -66.3972 348° North 355 409 36,000  Level New York Center
05:25PM 33.9253 -66.4200 348° North 360 414 36,000  Level New York Center
05:26PM 34.0344 -66.4442 350° North 352 405 36,000  Level New York Center
05:27PM 34.1231 -66.4672 348° North 357 411 36,000  Level New York Center
05:28PM 34.2303 -66.4917 349° North 357 411 36,000  Level New York Center
05:29PM 34.3331 -66.5089 352° North 362 417 36,000 -240 Level New York Center
05:30PM 34.4175 -66.5372 345° North 355 409 35,600 -780 Descending New York Center
05:31PM 34.5328 -66.5564 352° North 360 414 34,500 -1,020 Descending New York Center
05:32PM 34.6300 -66.5892 344° North 374 430 33,600 -1,200 Descending New York Center
05:33PM 34.7247 -66.6147 347° North 380 437 32,100 -840 Descending New York Center
05:34PM 34.8506 -66.6336 353° North 391 450 32,000 -60 Descending New York Center
05:35PM 34.9581 -66.6636 347° North 391 450 32,000  Level New York Center
06:11PM 38.8931 -67.5769 327° Northwest 458 527 32,000  Level New York Center
06:12PM 38.6487 -67.8121 347° North  Level Estimated
06:12PM 38.9986 -67.6206 342° North 428 493 32,000  Level New York Center
06:13PM 38.7544 -67.8150 359° North  Level FlightAware Approximate
06:13PM 39.0900 -67.6914 329° Northwest 402 463 32,000  Level New York Center
06:14PM 38.8431 -67.8886 346° North  Level Estimated
06:14PM 39.1875 -67.7569 332° Northwest 392 451 32,000  Level New York Center
06:15PM 38.9320 -67.9626 327° Northwest  Level Estimated
06:15PM 39.2811 -67.8231 331° Northwest 387 445 32,000  Level New York Center
06:16PM 39.0209 -68.0368 327° Northwest  Level Estimated
06:16PM 39.3764 -67.8889 332° Northwest 387 445 32,000  Level New York Center
06:17PM 39.4697 -67.9550 331° Northwest 382 440 32,000  Level New York Center
06:18PM 39.5669 -68.0186 333° Northwest 382 440 32,000  Level New York Center
06:19PM 39.6644 -68.0825 333° Northwest 382 440 32,000  Level New York Center
06:20PM 39.7597 -68.1517 331° Northwest 382 440 32,000 -180 Level New York Center
06:21PM 39.8528 -68.2214 330° Northwest 382 440 31,700 -660 Descending New York Center
06:22PM 39.9522 -68.2828 335° Northwest 382 440 30,700 -1,020 Descending New York Center
06:23PM 40.0494 -68.3581 329° Northwest 388 447 29,700 -1,020 Descending New York Center
06:25PM 40.2269 -68.4739 334° Northwest 400 460 28,000 -660 Descending Boston Center
06:26PM 40.3239 -68.5439 331° Northwest 398 458 28,000  Level Boston Center
06:27PM 40.4219 -68.6119 332° Northwest 399 459 28,000  Level Boston Center
06:28PM 40.5194 -68.6831 331° Northwest 401 461 28,000  Level Boston Center
06:29PM 40.6175 -68.7519 332° Northwest 400 460 28,000  Level Boston Center
06:33PM 41.0723 -69.0819 331° Northwest 395 455 28,000  Level FlightAware ADS-B
06:35PM 41.2355 -69.2014 330° Northwest 389 448 28,000  Level FlightAware ADS-B
06:36PM 41.3772 -69.3057 331° Northwest 396 456 28,000  Level FlightAware ADS-B
06:37PM 41.4792 -69.3812 330° Northwest 389 448 28,000  Level FlightAware ADS-B
06:38PM 41.5411 -69.4269 330° Northwest 386 444 28,000  Level FlightAware ADS-B
06:38PM 41.5900 -69.4632 330° Northwest 386 444 28,000  Level FlightAware ADS-B
06:39PM 41.6435 -69.5030 331° Northwest 392 451 28,000  Level FlightAware ADS-B
06:40PM 41.7034 -69.5476 331° Northwest 392 451 28,000 -360 Level FlightAware ADS-B
06:40PM 41.7501 -69.5824 330° Northwest 370 426 27,600 -780 Descending FlightAware ADS-B
06:40PM 41.7754 -69.6012 330° Northwest 353 406 27,400 -840 Descending FlightAware ADS-B
06:41PM 41.8258 -69.6389 331° Northwest 354 407 26,900 -1,020 Descending FlightAware ADS-B
06:41PM 41.8546 -69.6607 331° Northwest 355 409 26,500 -1,020 Descending FlightAware ADS-B
06:42PM 41.8997 -69.6950 331° Northwest 356 410 26,000 -960 Descending FlightAware ADS-B (KBOS)
06:42PM 41.9446 -69.7286 331° Northwest 353 406 25,500 -1,260 Descending FlightAware ADS-B (KBOS)
06:43PM 41.9863 -69.7599 331° Northwest 349 402 24,700 -1,680 Descending FlightAware ADS-B (KBOS)
06:43PM 41.9986 -69.7692 331° Northwest 343 395 23,800 -1,860 Descending FlightAware ADS-B (KBOS)
06:44PM 42.0591 -69.8146 330° Northwest 332 382 23,200 -1,920 Descending FlightAware ADS-B
06:44PM 42.0999 -69.8456 331° Northwest 332 382 22,200 -1,860 Descending FlightAware ADS-B (KBOS)
06:45PM 42.1204 -69.8610 330° Northwest 320 368 21,800 -1,680 Descending FlightAware ADS-B
06:45PM 42.1395 -69.8755 330° Northwest 318 366 21,400 -1,800 Descending FlightAware ADS-B
06:45PM 42.1690 -69.8978 330° Northwest 315 362 20,700 -1,920 Descending FlightAware ADS-B
06:46PM 42.1976 -69.9195 331° Northwest 316 364 20,000 -1,800 Descending FlightAware ADS-B
06:46PM 42.2336 -69.9471 330° Northwest 307 353 19,100 -1,620 Descending FlightAware ADS-B (KBOS)
06:46PM 42.2564 -69.9645 330° Northwest 298 343 18,700 -1,680 Descending FlightAware ADS-B
06:47PM 42.2728 -69.9770 330° Northwest 295 339 18,300 -2,160 Descending FlightAware ADS-B
06:47PM 42.2955 -69.9943 330° Northwest 295 339 17,600 -1,980 Descending FlightAware ADS-B
06:47PM 42.3111 -70.0062 331° Northwest 299 344 17,300 -1,020 Descending FlightAware ADS-B
06:47PM 42.3185 -70.0118 331° Northwest 296 341 17,100 -1,560 Descending FlightAware ADS-B (KOWD)
06:48PM 42.3712 -70.0521 331° Northwest 286 329 16,000 -1,920 Descending FlightAware ADS-B (KBOS)
06:48PM 42.3834 -70.0613 330° Northwest 277 319 15,700 -1,620 Descending FlightAware ADS-B
06:48PM 42.3904 -70.0667 331° Northwest 280 322 15,500 -660 Descending FlightAware ADS-B
06:48PM 42.3882 -70.0650 330° Northwest 282 325 15,500 -1,740 Level FlightAware ADS-B (KOWD)
06:49PM 42.4402 -70.1047 330° Northwest 273 314 14,300 -1,860 Descending FlightAware ADS-B (KBOS)
06:49PM 42.4713 -70.1287 330° Northwest 265 305 13,600 -1,380 Descending FlightAware ADS-B (KBOS)
06:50PM 42.5048 -70.1545 330° Northwest 256 295 12,900 -1,860 Descending FlightAware ADS-B (KBOS)
06:50PM 42.5171 -70.1641 326° Northwest 251 289 12,300 -3,780 Descending FlightAware ADS-B
06:50PM 42.5316 -70.1819 301° West 247 284 11,100 -4,260 Descending FlightAware ADS-B (KBOS)
06:51PM 42.5350 -70.1924 281° West 241 277 10,600 -3,480 Descending FlightAware ADS-B
06:51PM 42.5359 -70.2097 265° West 239 275 10,000 -2,160 Descending FlightAware ADS-B
06:51PM 42.5343 -70.1894 236° Southwest 237 273 9,700 -1,740 Descending FlightAware ADS-B (KBOS)
06:51PM 42.5201 -70.2431 226° Southwest 234 269 9,200 -2,040 Descending FlightAware ADS-B (KBOS)
06:52PM 42.5201 -70.2431 225° Southwest 226 260 8,400 -1,740 Descending FlightAware ADS-B (KBOS)
06:52PM 42.4887 -70.2917 240° Southwest 205 236 7,900 -1,980 Descending FlightAware ADS-B (KBOS)
06:52PM 42.4847 -70.3018 244° Southwest 208 239 7,400 -2,580 Descending FlightAware ADS-B (KBOS)
06:52PM 42.4774 -70.3247 248° West 213 245 6,700 -2,160 Descending FlightAware ADS-B
06:53PM 42.4690 -70.3621 256° West 210 242 5,700 -1,800 Descending FlightAware ADS-B
06:53PM 42.4652 -70.3832 257° West 206 237 5,300 -1,320 Descending FlightAware ADS-B (KBOS)
06:54PM 42.4607 -70.4088 257° West 205 236 4,900 -660 Descending FlightAware ADS-B (KBOS)
06:54PM 42.4567 -70.4327 260° West 204 235 4,900 -180 Level FlightAware ADS-B
06:54PM 42.4535 -70.4522 257° West 206 237 4,800 -540 Descending FlightAware ADS-B (KBOS)
06:54PM 42.4519 -70.4620 260° West 203 234 4,700 -1,440 Descending FlightAware ADS-B
06:55PM 42.4473 -70.4894 259° West 206 237 4,100 -1,200 Descending FlightAware ADS-B
06:55PM 42.4431 -70.5137 259° West 201 231 3,900 -540 Descending FlightAware ADS-B
06:55PM 42.4393 -70.5356 257° West 214 246 3,800 -180 Descending FlightAware ADS-B (KBOS)
06:56PM 42.4345 -70.5628 256° West 212 244 3,800  Level FlightAware ADS-B (KBOS)
06:56PM 42.4297 -70.5905 257° West 214 246 3,800  Level FlightAware ADS-B
06:56PM 42.4264 -70.6099 260° West 210 242 3,800  Level FlightAware ADS-B
06:57PM 42.4210 -70.6422 259° West 199 229 3,800  Level FlightAware ADS-B
06:57PM 42.4190 -70.6536 256° West 187 215 3,800  Level FlightAware ADS-B (KBOS)
06:57PM 42.4149 -70.6761 259° West 176 203 3,800 240 Level FlightAware ADS-B
06:57PM 42.4139 -70.6814 259° West 176 203 3,900  Climbing FlightAware ADS-B
06:57PM 42.4110 -70.6975 257° West 177 204 3,800 -300 Descending FlightAware ADS-B (KBOS)
06:58PM 42.4095 -70.7066 260° West 175 201 3,800  Level FlightAware ADS-B
06:58PM 42.4073 -70.7197 260° West 176 203 3,800  Level FlightAware ADS-B
06:58PM 42.4060 -70.7274 260° West 177 204 3,800 -420 Level FlightAware ADS-B
06:58PM 42.4017 -70.7525 259° West 176 203 3,600 -780 Descending FlightAware ADS-B
06:59PM 42.3987 -70.7693 256° West 177 204 3,300 -1,080 Descending FlightAware ADS-B (KBOS)
06:59PM 42.3955 -70.7873 257° West 179 206 3,000 -1,200 Descending FlightAware ADS-B (KBOS)
06:59PM 42.3928 -70.8030 259° West 177 204 2,700 -1,080 Descending FlightAware ADS-B
06:59PM 42.3899 -70.8195 256° West 170 196 2,500 -840 Descending FlightAware ADS-B (KBOS)
07:00PM 42.3865 -70.8384 256° West 160 184 2,200 -960 Descending FlightAware ADS-B (KBOS)
07:00PM 42.3831 -70.8582 257° West 156 180 1,900 -840 Descending FlightAware ADS-B (KBOS)
07:01PM 42.3783 -70.8855 256° West 151 174 1,500 -960 Descending FlightAware ADS-B (KBOS)
07:01PM 42.3756 -70.9003 256° West 136 157 1,200 -840 Descending FlightAware ADS-B
07:01PM 42.3738 -70.9108 257° West 128 147 1,100 -600 Descending FlightAware ADS-B (KBOS)
07:01PM 42.3701 -70.9318 256° West 127 146 800 -600 Descending FlightAware ADS-B (KBOS)
07:02PM 42.3667 -70.9500 256° West 123 142 500 -540 Descending KA90
07:04PM 42.3500 -71.0000 246° West  Level FlightAware Approximate
07:11PM 42.3630 -71.0064 246° West  Level Estimated